sensor_id;sensor_type;location;lat;lon;timestamp;P1;durP1;ratioP1;P2;durP2;ratioP2
63276;SDS011;49403;51.046;13.780;2023-07-20T00:00:28;6.20;;;4.20;;
63276;SDS011;49403;51.046;13.780;2023-07-20T00:00:59;10.43;;;4.50;;
63276;SDS011;49403;51.046;13.780;2023-07-20T00:01:31;6.78;;;4.75;;
63276;SDS011;49403;51.046;13.780;2023-07-20T00:02:02;6.38;;;4.53;;
63276;SDS011;49403;51.046;13.780;2023-07-20T00:02:35;7.40;;;4.47;;
63276;SDS011;49403;51.046;13.780;2023-07-20T00:03:12;7.25;;;4.40;;
63276;SDS011;49403;51.046;13.780;2023-07-20T00:03:49;5.82;;;4.20;;
63276;SDS011;49403;51.046;13.780;2023-07-20T00:04:24;7.20;;;4.18;;
63276;SDS011;49403;51.046;13.780;2023-07-20T00:04:56;10.45;;;4.50;;
63276;SDS011;49403;51.046;13.780;2023-07-20T00:05:27;7.28;;;4.43;;
63276;SDS011;49403;51.046;13.780;2023-07-20T00:05:58;8.18;;;4.32;;
63276;SDS011;49403;51.046;13.780;2023-07-20T00:06:29;6.07;;;4.35;;
63276;SDS011;49403;51.046;13.780;2023-07-20T00:07:01;5.88;;;4.50;;
63276;SDS011;49403;51.046;13.780;2023-07-20T00:07:32;10.00;;;4.50;;
63276;SDS011;49403;51.046;13.780;2023-07-20T00:08:03;10.85;;;4.35;;
63276;SDS011;49403;51.046;13.780;2023-07-20T00:08:35;6.55;;;4.28;;
63276;SDS011;49403;51.046;13.780;2023-07-20T00:09:07;6.72;;;4.20;;
63276;SDS011;49403;51.046;13.780;2023-07-20T00:09:38;7.03;;;4.30;;
63276;SDS011;49403;51.046;13.780;2023-07-20T00:10:09;8.48;;;4.00;;
63276;SDS011;49403;51.046;13.780;2023-07-20T00:10:40;6.43;;;4.00;;
63276;SDS011;49403;51.046;13.780;2023-07-20T00:11:12;8.50;;;4.18;;
63276;SDS011;49403;51.046;13.780;2023-07-20T00:11:50;7.90;;;4.47;;
63276;SDS011;49403;51.046;13.780;2023-07-20T00:12:22;13.57;;;4.28;;
63276;SDS011;49403;51.046;13.780;2023-07-20T00:12:53;11.13;;;4.10;;
63276;SDS011;49403;51.046;13.780;2023-07-20T00:13:24;6.78;;;4.07;;
63276;SDS011;49403;51.046;13.780;2023-07-20T00:13:56;8.60;;;4.00;;
63276;SDS011;49403;51.046;13.780;2023-07-20T00:14:27;7.65;;;4.10;;
63276;SDS011;49403;51.046;13.780;2023-07-20T00:14:58;8.23;;;4.00;;
63276;SDS011;49403;51.046;13.780;2023-07-20T00:15:29;6.30;;;4.18;;
63276;SDS011;49403;51.046;13.780;2023-07-20T00:16:01;6.15;;;4.28;;
63276;SDS011;49403;51.046;13.780;2023-07-20T00:16:32;6.28;;;3.90;;
63276;SDS011;49403;51.046;13.780;2023-07-20T00:17:03;6.40;;;4.30;;
63276;SDS011;49403;51.046;13.780;2023-07-20T00:17:35;6.35;;;4.10;;
63276;SDS011;49403;51.046;13.780;2023-07-20T00:18:07;7.00;;;4.43;;
63276;SDS011;49403;51.046;13.780;2023-07-20T00:18:38;6.90;;;4.15;;
63276;SDS011;49403;51.046;13.780;2023-07-20T00:19:09;6.60;;;4.20;;
63276;SDS011;49403;51.046;13.780;2023-07-20T00:19:41;6.35;;;4.32;;
63276;SDS011;49403;51.046;13.780;2023-07-20T00:20:12;5.50;;;4.03;;
63276;SDS011;49403;51.046;13.780;2023-07-20T00:20:43;8.77;;;4.10;;
63276;SDS011;49403;51.046;13.780;2023-07-20T00:21:15;6.55;;;4.03;;
63276;SDS011;49403;51.046;13.780;2023-07-20T00:21:46;8.93;;;3.90;;
63276;SDS011;49403;51.046;13.780;2023-07-20T00:22:17;6.80;;;4.10;;
63276;SDS011;49403;51.046;13.780;2023-07-20T00:22:48;7.07;;;3.85;;
63276;SDS011;49403;51.046;13.780;2023-07-20T00:23:21;7.00;;;4.28;;
63276;SDS011;49403;51.046;13.780;2023-07-20T00:23:52;5.18;;;4.15;;
63276;SDS011;49403;51.046;13.780;2023-07-20T00:24:24;5.53;;;4.07;;
63276;SDS011;49403;51.046;13.780;2023-07-20T00:24:55;5.97;;;4.10;;
63276;SDS011;49403;51.046;13.780;2023-07-20T00:25:26;5.60;;;3.90;;
63276;SDS011;49403;51.046;13.780;2023-07-20T00:25:57;8.23;;;4.38;;
63276;SDS011;49403;51.046;13.780;2023-07-20T00:26:29;9.40;;;4.40;;
63276;SDS011;49403;51.046;13.780;2023-07-20T00:27:00;6.15;;;4.25;;
63276;SDS011;49403;51.046;13.780;2023-07-20T00:27:32;5.65;;;3.85;;
63276;SDS011;49403;51.046;13.780;2023-07-20T00:28:04;6.53;;;4.03;;
63276;SDS011;49403;51.046;13.780;2023-07-20T00:28:35;6.15;;;4.20;;
63276;SDS011;49403;51.046;13.780;2023-07-20T00:29:06;8.80;;;4.10;;
63276;SDS011;49403;51.046;13.780;2023-07-20T00:29:37;6.93;;;3.85;;
63276;SDS011;49403;51.046;13.780;2023-07-20T00:30:08;5.70;;;4.07;;
63276;SDS011;49403;51.046;13.780;2023-07-20T00:30:40;5.78;;;3.75;;
63276;SDS011;49403;51.046;13.780;2023-07-20T00:31:11;5.65;;;3.90;;
63276;SDS011;49403;51.046;13.780;2023-07-20T00:31:42;4.45;;;3.72;;
63276;SDS011;49403;51.046;13.780;2023-07-20T00:32:14;6.22;;;3.70;;
63276;SDS011;49403;51.046;13.780;2023-07-20T00:32:45;5.55;;;3.80;;
63276;SDS011;49403;51.046;13.780;2023-07-20T00:33:17;6.03;;;4.10;;
63276;SDS011;49403;51.046;13.780;2023-07-20T00:33:48;6.07;;;3.97;;
63276;SDS011;49403;51.046;13.780;2023-07-20T00:34:20;6.70;;;4.07;;
63276;SDS011;49403;51.046;13.780;2023-07-20T00:34:51;5.78;;;3.70;;
63276;SDS011;49403;51.046;13.780;2023-07-20T00:35:22;5.05;;;4.03;;
63276;SDS011;49403;51.046;13.780;2023-07-20T00:35:53;5.00;;;3.67;;
63276;SDS011;49403;51.046;13.780;2023-07-20T00:36:25;5.50;;;3.70;;
63276;SDS011;49403;51.046;13.780;2023-07-20T00:36:56;9.30;;;3.92;;
63276;SDS011;49403;51.046;13.780;2023-07-20T00:37:27;5.90;;;3.90;;
63276;SDS011;49403;51.046;13.780;2023-07-20T00:37:59;5.32;;;3.83;;
63276;SDS011;49403;51.046;13.780;2023-07-20T00:38:30;4.85;;;3.60;;
63276;SDS011;49403;51.046;13.780;2023-07-20T00:39:02;6.05;;;3.90;;
63276;SDS011;49403;51.046;13.780;2023-07-20T00:39:33;6.10;;;3.90;;
63276;SDS011;49403;51.046;13.780;2023-07-20T00:40:05;8.98;;;4.00;;
63276;SDS011;49403;51.046;13.780;2023-07-20T00:40:40;5.97;;;4.00;;
63276;SDS011;49403;51.046;13.780;2023-07-20T00:41:11;4.82;;;3.80;;
63276;SDS011;49403;51.046;13.780;2023-07-20T00:41:43;5.80;;;3.90;;
63276;SDS011;49403;51.046;13.780;2023-07-20T00:42:14;5.22;;;3.88;;
63276;SDS011;49403;51.046;13.780;2023-07-20T00:42:45;7.43;;;4.00;;
63276;SDS011;49403;51.046;13.780;2023-07-20T00:43:17;5.18;;;3.92;;
63276;SDS011;49403;51.046;13.780;2023-07-20T00:43:48;10.35;;;3.90;;
63276;SDS011;49403;51.046;13.780;2023-07-20T00:44:19;4.13;;;3.72;;
63276;SDS011;49403;51.046;13.780;2023-07-20T00:44:51;6.05;;;4.00;;
63276;SDS011;49403;51.046;13.780;2023-07-20T00:45:22;8.02;;;3.97;;
63276;SDS011;49403;51.046;13.780;2023-07-20T00:45:53;5.60;;;3.90;;
63276;SDS011;49403;51.046;13.780;2023-07-20T00:46:25;5.28;;;3.67;;
63276;SDS011;49403;51.046;13.780;2023-07-20T00:46:57;4.72;;;3.70;;
63276;SDS011;49403;51.046;13.780;2023-07-20T00:47:28;6.13;;;3.80;;
63276;SDS011;49403;51.046;13.780;2023-07-20T00:47:59;5.95;;;3.78;;
63276;SDS011;49403;51.046;13.780;2023-07-20T00:48:32;6.13;;;3.50;;
63276;SDS011;49403;51.046;13.780;2023-07-20T00:49:03;7.78;;;4.10;;
63276;SDS011;49403;51.046;13.780;2023-07-20T00:49:36;6.80;;;3.80;;
63276;SDS011;49403;51.046;13.780;2023-07-20T00:50:11;7.10;;;3.88;;
63276;SDS011;49403;51.046;13.780;2023-07-20T00:50:43;6.50;;;3.75;;
63276;SDS011;49403;51.046;13.780;2023-07-20T00:51:14;8.23;;;3.90;;
63276;SDS011;49403;51.046;13.780;2023-07-20T00:51:46;5.22;;;3.70;;
63276;SDS011;49403;51.046;13.780;2023-07-20T00:52:18;4.03;;;3.53;;
63276;SDS011;49403;51.046;13.780;2023-07-20T00:52:54;5.68;;;4.10;;
63276;SDS011;49403;51.046;13.780;2023-07-20T00:53:25;5.28;;;3.67;;
63276;SDS011;49403;51.046;13.780;2023-07-20T00:53:57;10.35;;;3.92;;
63276;SDS011;49403;51.046;13.780;2023-07-20T00:54:28;7.25;;;3.70;;
63276;SDS011;49403;51.046;13.780;2023-07-20T00:55:00;7.97;;;3.80;;
63276;SDS011;49403;51.046;13.780;2023-07-20T00:55:32;4.95;;;3.70;;
63276;SDS011;49403;51.046;13.780;2023-07-20T00:56:03;6.18;;;3.58;;
63276;SDS011;49403;51.046;13.780;2023-07-20T00:56:35;5.47;;;3.38;;
63276;SDS011;49403;51.046;13.780;2023-07-20T00:57:07;5.13;;;3.58;;
63276;SDS011;49403;51.046;13.780;2023-07-20T00:57:39;8.27;;;3.80;;
63276;SDS011;49403;51.046;13.780;2023-07-20T00:58:10;6.93;;;3.50;;
63276;SDS011;49403;51.046;13.780;2023-07-20T00:58:42;5.18;;;3.40;;
63276;SDS011;49403;51.046;13.780;2023-07-20T00:59:13;4.80;;;3.20;;
63276;SDS011;49403;51.046;13.780;2023-07-20T00:59:45;5.00;;;3.60;;
63276;SDS011;49403;51.046;13.780;2023-07-20T01:00:16;4.38;;;3.17;;
63276;SDS011;49403;51.046;13.780;2023-07-20T01:00:48;7.28;;;3.42;;
63276;SDS011;49403;51.046;13.780;2023-07-20T01:01:19;6.50;;;3.30;;
63276;SDS011;49403;51.046;13.780;2023-07-20T01:01:50;8.23;;;3.45;;
63276;SDS011;49403;51.046;13.780;2023-07-20T01:02:22;5.53;;;3.40;;
63276;SDS011;49403;51.046;13.780;2023-07-20T01:02:53;6.85;;;3.40;;
63276;SDS011;49403;51.046;13.780;2023-07-20T01:03:24;5.90;;;3.30;;
63276;SDS011;49403;51.046;13.780;2023-07-20T01:03:55;5.00;;;3.42;;
63276;SDS011;49403;51.046;13.780;2023-07-20T01:04:27;5.43;;;3.20;;
63276;SDS011;49403;51.046;13.780;2023-07-20T01:04:58;5.68;;;3.20;;
63276;SDS011;49403;51.046;13.780;2023-07-20T01:05:36;4.18;;;3.10;;
63276;SDS011;49403;51.046;13.780;2023-07-20T01:06:19;4.72;;;3.20;;
63276;SDS011;49403;51.046;13.780;2023-07-20T01:08:12;6.10;;;3.42;;
63276;SDS011;49403;51.046;13.780;2023-07-20T01:09:00;4.10;;;3.30;;
63276;SDS011;49403;51.046;13.780;2023-07-20T01:11:01;4.78;;;3.40;;
63276;SDS011;49403;51.046;13.780;2023-07-20T01:11:45;4.88;;;3.20;;
63276;SDS011;49403;51.046;13.780;2023-07-20T01:12:40;6.57;;;3.05;;
63276;SDS011;49403;51.046;13.780;2023-07-20T01:13:13;5.28;;;3.17;;
63276;SDS011;49403;51.046;13.780;2023-07-20T01:13:45;4.53;;;3.22;;
63276;SDS011;49403;51.046;13.780;2023-07-20T01:14:16;5.93;;;3.10;;
63276;SDS011;49403;51.046;13.780;2023-07-20T01:14:48;5.07;;;3.25;;
63276;SDS011;49403;51.046;13.780;2023-07-20T01:15:20;5.43;;;3.20;;
63276;SDS011;49403;51.046;13.780;2023-07-20T01:15:57;5.47;;;3.30;;
63276;SDS011;49403;51.046;13.780;2023-07-20T01:16:32;5.07;;;3.08;;
63276;SDS011;49403;51.046;13.780;2023-07-20T01:17:04;5.95;;;3.20;;
63276;SDS011;49403;51.046;13.780;2023-07-20T01:17:36;5.28;;;2.97;;
63276;SDS011;49403;51.046;13.780;2023-07-20T01:18:07;3.42;;;3.08;;
63276;SDS011;49403;51.046;13.780;2023-07-20T01:18:38;5.45;;;3.13;;
63276;SDS011;49403;51.046;13.780;2023-07-20T01:19:09;4.18;;;2.90;;
63276;SDS011;49403;51.046;13.780;2023-07-20T01:19:41;4.85;;;3.28;;
63276;SDS011;49403;51.046;13.780;2023-07-20T01:20:13;7.47;;;3.03;;
63276;SDS011;49403;51.046;13.780;2023-07-20T01:20:45;4.95;;;3.00;;
63276;SDS011;49403;51.046;13.780;2023-07-20T01:21:21;4.35;;;3.00;;
63276;SDS011;49403;51.046;13.780;2023-07-20T01:22:28;3.95;;;2.90;;
63276;SDS011;49403;51.046;13.780;2023-07-20T01:26:50;3.10;;;2.80;;
63276;SDS011;49403;51.046;13.780;2023-07-20T01:31:46;4.78;;;2.58;;
63276;SDS011;49403;51.046;13.780;2023-07-20T01:32:19;2.97;;;2.50;;
63276;SDS011;49403;51.046;13.780;2023-07-20T01:32:55;3.58;;;2.60;;
63276;SDS011;49403;51.046;13.780;2023-07-20T01:33:27;3.58;;;2.50;;
63276;SDS011;49403;51.046;13.780;2023-07-20T01:34:01;2.60;;;2.40;;
63276;SDS011;49403;51.046;13.780;2023-07-20T01:34:35;5.30;;;2.60;;
63276;SDS011;49403;51.046;13.780;2023-07-20T01:35:08;4.18;;;2.72;;
63276;SDS011;49403;51.046;13.780;2023-07-20T01:35:44;5.80;;;2.83;;
63276;SDS011;49403;51.046;13.780;2023-07-20T01:36:30;2.67;;;2.42;;
63276;SDS011;49403;51.046;13.780;2023-07-20T01:37:04;3.33;;;2.60;;
63276;SDS011;49403;51.046;13.780;2023-07-20T01:37:37;4.15;;;2.63;;
63276;SDS011;49403;51.046;13.780;2023-07-20T01:38:09;2.70;;;2.50;;
63276;SDS011;49403;51.046;13.780;2023-07-20T01:38:43;3.28;;;2.67;;
63276;SDS011;49403;51.046;13.780;2023-07-20T01:39:14;6.32;;;2.83;;
63276;SDS011;49403;51.046;13.780;2023-07-20T01:39:47;3.17;;;2.70;;
63276;SDS011;49403;51.046;13.780;2023-07-20T01:40:19;6.10;;;2.90;;
63276;SDS011;49403;51.046;13.780;2023-07-20T01:40:52;3.50;;;2.80;;
63276;SDS011;49403;51.046;13.780;2023-07-20T01:41:23;4.82;;;2.85;;
63276;SDS011;49403;51.046;13.780;2023-07-20T01:41:54;5.85;;;2.83;;
63276;SDS011;49403;51.046;13.780;2023-07-20T01:42:26;5.18;;;2.55;;
63276;SDS011;49403;51.046;13.780;2023-07-20T01:42:57;6.35;;;2.72;;
63276;SDS011;49403;51.046;13.780;2023-07-20T01:43:28;3.83;;;2.83;;
63276;SDS011;49403;51.046;13.780;2023-07-20T01:44:00;4.50;;;2.70;;
63276;SDS011;49403;51.046;13.780;2023-07-20T01:44:32;3.33;;;2.50;;
63276;SDS011;49403;51.046;13.780;2023-07-20T01:45:04;2.83;;;2.47;;
63276;SDS011;49403;51.046;13.780;2023-07-20T01:45:35;4.60;;;2.45;;
63276;SDS011;49403;51.046;13.780;2023-07-20T01:46:07;4.30;;;2.42;;
63276;SDS011;49403;51.046;13.780;2023-07-20T01:46:38;5.07;;;2.80;;
63276;SDS011;49403;51.046;13.780;2023-07-20T01:47:09;2.75;;;2.47;;
63276;SDS011;49403;51.046;13.780;2023-07-20T01:47:40;8.07;;;2.80;;
63276;SDS011;49403;51.046;13.780;2023-07-20T01:48:12;5.35;;;2.60;;
63276;SDS011;49403;51.046;13.780;2023-07-20T01:48:44;3.17;;;2.72;;
63276;SDS011;49403;51.046;13.780;2023-07-20T01:49:15;2.95;;;2.50;;
63276;SDS011;49403;51.046;13.780;2023-07-20T01:49:46;6.95;;;2.60;;
63276;SDS011;49403;51.046;13.780;2023-07-20T01:50:17;2.70;;;2.47;;
63276;SDS011;49403;51.046;13.780;2023-07-20T01:50:49;5.10;;;2.83;;
63276;SDS011;49403;51.046;13.780;2023-07-20T01:51:20;5.53;;;2.80;;
63276;SDS011;49403;51.046;13.780;2023-07-20T01:51:51;3.38;;;2.63;;
63276;SDS011;49403;51.046;13.780;2023-07-20T01:52:22;8.57;;;2.85;;
63276;SDS011;49403;51.046;13.780;2023-07-20T01:52:54;5.07;;;2.78;;
63276;SDS011;49403;51.046;13.780;2023-07-20T01:53:25;3.10;;;2.67;;
63276;SDS011;49403;51.046;13.780;2023-07-20T01:53:56;4.15;;;2.72;;
63276;SDS011;49403;51.046;13.780;2023-07-20T01:54:28;3.63;;;2.60;;
63276;SDS011;49403;51.046;13.780;2023-07-20T01:54:59;4.25;;;2.80;;
63276;SDS011;49403;51.046;13.780;2023-07-20T01:55:30;4.82;;;2.90;;
63276;SDS011;49403;51.046;13.780;2023-07-20T01:56:02;3.38;;;2.70;;
63276;SDS011;49403;51.046;13.780;2023-07-20T01:56:33;3.20;;;2.75;;
63276;SDS011;49403;51.046;13.780;2023-07-20T01:57:04;3.95;;;2.70;;
63276;SDS011;49403;51.046;13.780;2023-07-20T01:57:35;3.05;;;2.65;;
63276;SDS011;49403;51.046;13.780;2023-07-20T01:58:07;3.75;;;2.90;;
63276;SDS011;49403;51.046;13.780;2023-07-20T01:58:38;3.55;;;2.70;;
63276;SDS011;49403;51.046;13.780;2023-07-20T01:59:09;6.78;;;3.00;;
63276;SDS011;49403;51.046;13.780;2023-07-20T01:59:40;5.47;;;2.80;;
63276;SDS011;49403;51.046;13.780;2023-07-20T02:00:15;6.75;;;3.33;;
63276;SDS011;49403;51.046;13.780;2023-07-20T02:00:46;3.50;;;3.08;;
63276;SDS011;49403;51.046;13.780;2023-07-20T02:01:17;6.25;;;3.10;;
63276;SDS011;49403;51.046;13.780;2023-07-20T02:01:48;6.68;;;3.00;;
63276;SDS011;49403;51.046;13.780;2023-07-20T02:02:20;3.53;;;3.00;;
63276;SDS011;49403;51.046;13.780;2023-07-20T02:02:51;4.28;;;3.15;;
63276;SDS011;49403;51.046;13.780;2023-07-20T02:03:22;8.43;;;3.03;;
63276;SDS011;49403;51.046;13.780;2023-07-20T02:03:55;4.50;;;3.00;;
63276;SDS011;49403;51.046;13.780;2023-07-20T02:04:27;4.90;;;3.10;;
63276;SDS011;49403;51.046;13.780;2023-07-20T02:04:58;5.43;;;3.20;;
63276;SDS011;49403;51.046;13.780;2023-07-20T02:05:29;9.68;;;3.20;;
63276;SDS011;49403;51.046;13.780;2023-07-20T02:06:00;4.15;;;3.00;;
63276;SDS011;49403;51.046;13.780;2023-07-20T02:06:32;8.07;;;3.10;;
63276;SDS011;49403;51.046;13.780;2023-07-20T02:07:03;6.45;;;3.00;;
63276;SDS011;49403;51.046;13.780;2023-07-20T02:07:34;6.93;;;3.13;;
63276;SDS011;49403;51.046;13.780;2023-07-20T02:08:06;4.82;;;3.00;;
63276;SDS011;49403;51.046;13.780;2023-07-20T02:08:37;6.50;;;3.20;;
63276;SDS011;49403;51.046;13.780;2023-07-20T02:09:08;4.63;;;3.00;;
63276;SDS011;49403;51.046;13.780;2023-07-20T02:09:39;14.35;;;3.58;;
63276;SDS011;49403;51.046;13.780;2023-07-20T02:10:10;8.50;;;3.45;;
63276;SDS011;49403;51.046;13.780;2023-07-20T02:10:44;5.40;;;3.13;;
63276;SDS011;49403;51.046;13.780;2023-07-20T02:11:16;7.28;;;3.20;;
63276;SDS011;49403;51.046;13.780;2023-07-20T02:11:48;6.20;;;3.72;;
63276;SDS011;49403;51.046;13.780;2023-07-20T02:12:20;8.95;;;3.40;;
63276;SDS011;49403;51.046;13.780;2023-07-20T02:12:51;8.10;;;3.40;;
63276;SDS011;49403;51.046;13.780;2023-07-20T02:13:22;7.00;;;3.67;;
63276;SDS011;49403;51.046;13.780;2023-07-20T02:13:54;9.88;;;3.63;;
63276;SDS011;49403;51.046;13.780;2023-07-20T02:14:25;7.85;;;3.80;;
63276;SDS011;49403;51.046;13.780;2023-07-20T02:14:56;14.80;;;3.70;;
63276;SDS011;49403;51.046;13.780;2023-07-20T02:15:27;5.70;;;3.45;;
63276;SDS011;49403;51.046;13.780;2023-07-20T02:15:58;6.80;;;3.63;;
63276;SDS011;49403;51.046;13.780;2023-07-20T02:16:30;5.90;;;3.67;;
63276;SDS011;49403;51.046;13.780;2023-07-20T02:17:01;8.40;;;3.50;;
63276;SDS011;49403;51.046;13.780;2023-07-20T02:17:32;7.72;;;3.70;;
63276;SDS011;49403;51.046;13.780;2023-07-20T02:18:04;7.30;;;3.53;;
63276;SDS011;49403;51.046;13.780;2023-07-20T02:18:35;10.60;;;3.92;;
63276;SDS011;49403;51.046;13.780;2023-07-20T02:19:07;13.32;;;3.92;;
63276;SDS011;49403;51.046;13.780;2023-07-20T02:19:38;8.45;;;3.53;;
63276;SDS011;49403;51.046;13.780;2023-07-20T02:20:10;5.47;;;3.83;;
63276;SDS011;49403;51.046;13.780;2023-07-20T02:20:42;7.85;;;3.85;;
63276;SDS011;49403;51.046;13.780;2023-07-20T02:21:13;9.25;;;3.50;;
63276;SDS011;49403;51.046;13.780;2023-07-20T02:21:44;8.35;;;3.55;;
63276;SDS011;49403;51.046;13.780;2023-07-20T02:22:16;7.03;;;3.53;;
63276;SDS011;49403;51.046;13.780;2023-07-20T02:22:47;6.15;;;3.50;;
63276;SDS011;49403;51.046;13.780;2023-07-20T02:23:18;7.68;;;3.63;;
63276;SDS011;49403;51.046;13.780;2023-07-20T02:23:49;11.82;;;3.70;;
63276;SDS011;49403;51.046;13.780;2023-07-20T02:24:20;6.95;;;3.50;;
63276;SDS011;49403;51.046;13.780;2023-07-20T02:24:52;7.15;;;3.85;;
63276;SDS011;49403;51.046;13.780;2023-07-20T02:25:23;7.78;;;3.80;;
63276;SDS011;49403;51.046;13.780;2023-07-20T02:25:54;8.40;;;3.63;;
63276;SDS011;49403;51.046;13.780;2023-07-20T02:26:26;7.30;;;3.65;;
63276;SDS011;49403;51.046;13.780;2023-07-20T02:26:57;7.55;;;3.70;;
63276;SDS011;49403;51.046;13.780;2023-07-20T02:27:28;7.03;;;3.30;;
63276;SDS011;49403;51.046;13.780;2023-07-20T02:27:59;8.40;;;3.90;;
63276;SDS011;49403;51.046;13.780;2023-07-20T02:28:30;9.48;;;3.50;;
63276;SDS011;49403;51.046;13.780;2023-07-20T02:29:02;9.85;;;3.60;;
63276;SDS011;49403;51.046;13.780;2023-07-20T02:29:35;7.22;;;3.83;;
63276;SDS011;49403;51.046;13.780;2023-07-20T02:30:06;7.03;;;3.80;;
63276;SDS011;49403;51.046;13.780;2023-07-20T02:30:39;8.98;;;3.60;;
63276;SDS011;49403;51.046;13.780;2023-07-20T02:31:10;9.32;;;3.70;;
63276;SDS011;49403;51.046;13.780;2023-07-20T02:31:41;13.27;;;4.13;;
63276;SDS011;49403;51.046;13.780;2023-07-20T02:32:13;7.10;;;3.80;;
63276;SDS011;49403;51.046;13.780;2023-07-20T02:32:44;7.30;;;3.60;;
63276;SDS011;49403;51.046;13.780;2023-07-20T02:33:18;11.07;;;4.43;;
63276;SDS011;49403;51.046;13.780;2023-07-20T02:33:50;7.55;;;4.32;;
63276;SDS011;49403;51.046;13.780;2023-07-20T02:34:22;10.57;;;4.00;;
63276;SDS011;49403;51.046;13.780;2023-07-20T02:34:53;8.13;;;4.43;;
63276;SDS011;49403;51.046;13.780;2023-07-20T02:35:24;10.23;;;4.30;;
63276;SDS011;49403;51.046;13.780;2023-07-20T02:35:56;7.53;;;4.38;;
63276;SDS011;49403;51.046;13.780;2023-07-20T02:36:27;10.48;;;4.55;;
63276;SDS011;49403;51.046;13.780;2023-07-20T02:36:58;9.18;;;4.50;;
63276;SDS011;49403;51.046;13.780;2023-07-20T02:37:31;10.50;;;4.72;;
63276;SDS011;49403;51.046;13.780;2023-07-20T02:38:02;9.23;;;4.47;;
63276;SDS011;49403;51.046;13.780;2023-07-20T02:38:33;10.38;;;4.45;;
63276;SDS011;49403;51.046;13.780;2023-07-20T02:39:05;11.05;;;4.90;;
63276;SDS011;49403;51.046;13.780;2023-07-20T02:39:37;7.90;;;4.88;;
63276;SDS011;49403;51.046;13.780;2023-07-20T02:40:08;11.38;;;4.68;;
63276;SDS011;49403;51.046;13.780;2023-07-20T02:40:39;10.57;;;4.40;;
63276;SDS011;49403;51.046;13.780;2023-07-20T02:41:11;11.73;;;4.70;;
63276;SDS011;49403;51.046;13.780;2023-07-20T02:41:43;7.95;;;4.63;;
63276;SDS011;49403;51.046;13.780;2023-07-20T02:42:14;10.52;;;4.65;;
63276;SDS011;49403;51.046;13.780;2023-07-20T02:42:45;8.52;;;4.72;;
63276;SDS011;49403;51.046;13.780;2023-07-20T02:43:17;7.90;;;4.40;;
63276;SDS011;49403;51.046;13.780;2023-07-20T02:43:48;11.38;;;5.05;;
63276;SDS011;49403;51.046;13.780;2023-07-20T02:44:20;8.80;;;4.63;;
63276;SDS011;49403;51.046;13.780;2023-07-20T02:44:51;10.00;;;4.40;;
63276;SDS011;49403;51.046;13.780;2023-07-20T02:45:22;7.40;;;4.30;;
63276;SDS011;49403;51.046;13.780;2023-07-20T02:45:54;9.65;;;4.57;;
63276;SDS011;49403;51.046;13.780;2023-07-20T02:46:25;7.72;;;4.60;;
63276;SDS011;49403;51.046;13.780;2023-07-20T02:46:56;12.00;;;4.78;;
63276;SDS011;49403;51.046;13.780;2023-07-20T02:47:27;10.18;;;4.72;;
63276;SDS011;49403;51.046;13.780;2023-07-20T02:47:59;13.82;;;4.72;;
63276;SDS011;49403;51.046;13.780;2023-07-20T02:48:31;11.93;;;4.97;;
63276;SDS011;49403;51.046;13.780;2023-07-20T02:49:02;8.45;;;4.53;;
63276;SDS011;49403;51.046;13.780;2023-07-20T02:49:34;8.95;;;4.28;;
63276;SDS011;49403;51.046;13.780;2023-07-20T02:50:06;10.50;;;4.85;;
63276;SDS011;49403;51.046;13.780;2023-07-20T02:50:38;10.48;;;4.30;;
63276;SDS011;49403;51.046;13.780;2023-07-20T02:51:09;8.27;;;4.57;;
63276;SDS011;49403;51.046;13.780;2023-07-20T02:51:42;13.82;;;5.15;;
63276;SDS011;49403;51.046;13.780;2023-07-20T02:52:13;7.82;;;4.65;;
63276;SDS011;49403;51.046;13.780;2023-07-20T02:52:44;8.90;;;4.90;;
63276;SDS011;49403;51.046;13.780;2023-07-20T02:53:16;11.63;;;4.93;;
63276;SDS011;49403;51.046;13.780;2023-07-20T02:53:47;8.57;;;4.70;;
63276;SDS011;49403;51.046;13.780;2023-07-20T02:54:18;8.30;;;4.80;;
63276;SDS011;49403;51.046;13.780;2023-07-20T02:54:49;9.63;;;5.10;;
63276;SDS011;49403;51.046;13.780;2023-07-20T02:55:21;13.75;;;5.18;;
63276;SDS011;49403;51.046;13.780;2023-07-20T02:55:52;10.18;;;4.90;;
63276;SDS011;49403;51.046;13.780;2023-07-20T02:56:24;12.27;;;5.15;;
63276;SDS011;49403;51.046;13.780;2023-07-20T02:56:55;12.77;;;5.85;;
63276;SDS011;49403;51.046;13.780;2023-07-20T02:57:27;12.90;;;5.53;;
63276;SDS011;49403;51.046;13.780;2023-07-20T02:57:58;7.90;;;5.03;;
63276;SDS011;49403;51.046;13.780;2023-07-20T02:58:29;11.75;;;5.30;;
63276;SDS011;49403;51.046;13.780;2023-07-20T02:59:03;8.65;;;5.20;;
63276;SDS011;49403;51.046;13.780;2023-07-20T02:59:35;9.50;;;5.18;;
63276;SDS011;49403;51.046;13.780;2023-07-20T03:00:06;11.73;;;5.28;;
63276;SDS011;49403;51.046;13.780;2023-07-20T03:00:38;8.55;;;4.97;;
63276;SDS011;49403;51.046;13.780;2023-07-20T03:01:09;10.65;;;5.30;;
63276;SDS011;49403;51.046;13.780;2023-07-20T03:01:41;9.35;;;5.15;;
63276;SDS011;49403;51.046;13.780;2023-07-20T03:02:14;11.88;;;5.15;;
63276;SDS011;49403;51.046;13.780;2023-07-20T03:02:46;13.05;;;5.25;;
63276;SDS011;49403;51.046;13.780;2023-07-20T03:03:25;11.18;;;5.55;;
63276;SDS011;49403;51.046;13.780;2023-07-20T03:03:57;8.45;;;5.15;;
63276;SDS011;49403;51.046;13.780;2023-07-20T03:04:28;9.95;;;5.20;;
63276;SDS011;49403;51.046;13.780;2023-07-20T03:04:59;9.63;;;5.32;;
63276;SDS011;49403;51.046;13.780;2023-07-20T03:05:32;12.27;;;5.22;;
63276;SDS011;49403;51.046;13.780;2023-07-20T03:06:04;10.15;;;5.30;;
63276;SDS011;49403;51.046;13.780;2023-07-20T03:06:36;9.02;;;5.30;;
63276;SDS011;49403;51.046;13.780;2023-07-20T03:07:07;9.27;;;5.20;;
63276;SDS011;49403;51.046;13.780;2023-07-20T03:07:39;9.65;;;5.30;;
63276;SDS011;49403;51.046;13.780;2023-07-20T03:08:10;7.55;;;5.10;;
63276;SDS011;49403;51.046;13.780;2023-07-20T03:08:41;13.27;;;5.05;;
63276;SDS011;49403;51.046;13.780;2023-07-20T03:09:18;9.20;;;5.45;;
63276;SDS011;49403;51.046;13.780;2023-07-20T03:09:50;11.65;;;5.10;;
63276;SDS011;49403;51.046;13.780;2023-07-20T03:10:21;7.05;;;4.93;;
63276;SDS011;49403;51.046;13.780;2023-07-20T03:10:52;10.48;;;5.30;;
63276;SDS011;49403;51.046;13.780;2023-07-20T03:11:24;13.60;;;5.40;;
63276;SDS011;49403;51.046;13.780;2023-07-20T03:11:55;9.52;;;5.13;;
63276;SDS011;49403;51.046;13.780;2023-07-20T03:12:27;9.38;;;5.07;;
63276;SDS011;49403;51.046;13.780;2023-07-20T03:12:58;9.10;;;4.97;;
63276;SDS011;49403;51.046;13.780;2023-07-20T03:13:30;11.05;;;5.45;;
63276;SDS011;49403;51.046;13.780;2023-07-20T03:14:01;15.45;;;5.40;;
63276;SDS011;49403;51.046;13.780;2023-07-20T03:14:32;12.00;;;5.40;;
63276;SDS011;49403;51.046;13.780;2023-07-20T03:15:03;8.82;;;5.35;;
63276;SDS011;49403;51.046;13.780;2023-07-20T03:15:35;12.38;;;5.43;;
63276;SDS011;49403;51.046;13.780;2023-07-20T03:16:06;10.43;;;5.20;;
63276;SDS011;49403;51.046;13.780;2023-07-20T03:16:41;12.35;;;5.35;;
63276;SDS011;49403;51.046;13.780;2023-07-20T03:17:12;16.17;;;5.63;;
63276;SDS011;49403;51.046;13.780;2023-07-20T03:17:43;12.73;;;5.30;;
63276;SDS011;49403;51.046;13.780;2023-07-20T03:18:15;8.77;;;5.30;;
63276;SDS011;49403;51.046;13.780;2023-07-20T03:18:46;8.65;;;5.15;;
63276;SDS011;49403;51.046;13.780;2023-07-20T03:19:17;10.98;;;4.63;;
63276;SDS011;49403;51.046;13.780;2023-07-20T03:19:48;7.45;;;4.97;;
63276;SDS011;49403;51.046;13.780;2023-07-20T03:20:20;8.70;;;5.05;;
63276;SDS011;49403;51.046;13.780;2023-07-20T03:20:51;9.27;;;5.07;;
63276;SDS011;49403;51.046;13.780;2023-07-20T03:21:22;9.02;;;4.60;;